Terminal Aerodrome Forecast
Issued by NWS Twin Cities, MN

Home | Current Version | Previous Version | Text Only | Print | Product List | Glossary Off
Versions: 1 2 3 4 5 6 7 8 9 10 11 12 13

654
FTUS43 KMPX 270520
TAFEAU
TAF
KEAU 270520Z 2706/2806 24003KT P6SM SKC
     FM271400 24007KT P6SM SCT250
     FM271800 20012KT P6SM SCT050 BKN250
     FM280100 15007KT P6SM BKN250=

USA.gov is the U.S. government's official web portal to all federal, state and local government web resources and services.